ADDS TAF Board (Experimental) INFO Settings
IDs:

KMCI - Kansas City Intl, MO, US

Issued at 1727 UTC 03 Sep 2015
Updated at: 2129 UTC 03 Sep 2015
Time2053Z 03/22Z 03/23Z 04/00Z 04/01Z 04/02Z 04/03Z 04/04Z 04/05Z 04/06Z 04/07Z 04/08Z 04/09Z 04/10Z
Type OBS PRVL PRVL PRVL PRVL PRVL PRVL PRVL PRVL PRVL PRVL PRVL PRVL PRVL
VIS 10 >6 >6 >6 >6 >6 >6 >6 >6 >6 >6 >6 >6 >6
CIG -- -- -- -- -- -- -- -- -- -- -- -- -- --
Cover FEW SCT SCT FEW FEW FEW FEW FEW FEW FEW FEW FEW FEW FEW
FltCat VFR VFR VFR VFR VFR VFR VFR VFR VFR VFR VFR VFR VFR VFR
WX -- -- -- -- -- -- -- -- -- -- -- -- -- --
WDir 200 200 200 170 170 170 170 170 170 170 170 170 170 170
WSpd 15 13 13 8 8 8 8 8 8 8 8 8 8 8
WGst -- -- -- -- -- -- -- -- -- -- -- -- -- --
R01/19
XWnd 2 2 2 -3 -3 -3 -3 -3 -3 -3 -3 -3 -3 -3
HWnd -15 -13 -13 -7 -7 -7 -7 -7 -7 -7 -7 -7 -7 -7
R09/27
XWnd -15 -13 -13 -8 -8 -8 -8 -8 -8 -8 -8 -8 -8 -8
HWnd -4 -3 -3 2 2 2 2 2 2 2 2 2 2 2

NOTE: TEMPO conditions in [brackets]. Keep in mind TEMPO conditions might be better (lower impact) than prevailing conditions.

Raw TAF
KMCI 031727Z 0318/0418 20013KT P6SM SCT120
  FM040000 17008KT P6SM FEW100
  FM041600 18012G20KT P6SM SKC


Raw METAR
KMCI 032053Z 20015KT 10SM FEW250 33/19 A2989 RMK AO2 SLP109 T03280194 56015
KMCI 031953Z 20013G17KT 10SM BKN250 34/21 A2990 RMK AO2 SLP113 T03390206
KMCI 031853Z 20014G19KT 10SM BKN250 33/20 A2992 RMK AO2 SLP118 T03280200

METAR Board
Radar Display
Forecast Discussion

TAF Board Legend

Potential Impact
Threat None Slight Moderate High
Visibility (sm) ≥5.1 5.1>X≥3 3>X≥1 <1
Ceiling (100 ft) ≥30.1 30.1>X≥10 10>X≥5 <5
Wind Speed (kt) <10 10≤X<20 20≤X<30 ≥30
Wind Gust (kt) <15 15≤X<25 25≤X<35 ≥35
Weather No Wx Reported VCTS,-TS,-FZRA,SN TS,FZRA +TS,+FZRA,+SN